Kinsley, Kansas
Current Conditions -  °F | °C
As of 10:52 PM on Saturday 25 Oct 2014 (Local Time) from KDDC Reporting Station
Clear Clear  
Wind Chill: 67°   Ceiling: Unl
Heat Index: 67°   Visibility: 10mi
Dew Point: 48°   Wind: 9mph
Humidity: 51%   Direction: 190°S
Pressure: 29.95"   Gusts: NA
Location:  37.92°N, 99.41°W
Report Text: KDDC 260352Z AUTO 19008KT 10SM CLR 19/09 A2995 RMK AO2 SLP119 T01940089
Loading
Personal Weather Stations






























Interactive Weather Map
Tropical Storm Tracking
New forecast layout! Learn more

10-Day Weather Forecast

Advertisements
Track Severe Weather on mobile